sensor_id;sensor_type;location;lat;lon;timestamp;temperature;humidity
14993;DHT22;7592;51.088;13.732;2024-02-14T00:00:38;2.30;99.90
14993;DHT22;7592;51.088;13.732;2024-02-14T00:05:33;2.40;99.90
14993;DHT22;7592;51.088;13.732;2024-02-14T00:10:25;2.60;99.90
14993;DHT22;7592;51.088;13.732;2024-02-14T00:15:20;2.90;99.90
14993;DHT22;7592;51.088;13.732;2024-02-14T00:20:13;3.10;99.90
14993;DHT22;7592;51.088;13.732;2024-02-14T00:25:05;3.40;99.90
14993;DHT22;7592;51.088;13.732;2024-02-14T00:29:57;3.50;99.90
14993;DHT22;7592;51.088;13.732;2024-02-14T00:34:50;3.70;99.90
14993;DHT22;7592;51.088;13.732;2024-02-14T00:39:43;3.80;99.90
14993;DHT22;7592;51.088;13.732;2024-02-14T00:44:35;3.70;99.90
14993;DHT22;7592;51.088;13.732;2024-02-14T00:49:27;3.80;99.90
14993;DHT22;7592;51.088;13.732;2024-02-14T00:54:19;3.80;99.90
14993;DHT22;7592;51.088;13.732;2024-02-14T00:59:12;3.80;99.90
14993;DHT22;7592;51.088;13.732;2024-02-14T01:04:04;3.90;99.90
14993;DHT22;7592;51.088;13.732;2024-02-14T01:08:56;4.00;99.90
14993;DHT22;7592;51.088;13.732;2024-02-14T01:13:48;4.10;99.90
14993;DHT22;7592;51.088;13.732;2024-02-14T01:18:42;4.00;99.90
14993;DHT22;7592;51.088;13.732;2024-02-14T01:23:34;3.90;99.90
14993;DHT22;7592;51.088;13.732;2024-02-14T01:28:27;4.00;99.90
14993;DHT22;7592;51.088;13.732;2024-02-14T01:33:19;4.10;99.90
14993;DHT22;7592;51.088;13.732;2024-02-14T01:38:12;4.10;99.90
14993;DHT22;7592;51.088;13.732;2024-02-14T01:43:04;4.10;99.90
14993;DHT22;7592;51.088;13.732;2024-02-14T01:47:56;4.10;99.90
14993;DHT22;7592;51.088;13.732;2024-02-14T01:52:49;4.20;99.90
14993;DHT22;7592;51.088;13.732;2024-02-14T01:57:41;4.10;99.90
14993;DHT22;7592;51.088;13.732;2024-02-14T02:02:34;4.10;99.90
14993;DHT22;7592;51.088;13.732;2024-02-14T02:07:50;4.10;99.90
14993;DHT22;7592;51.088;13.732;2024-02-14T02:12:42;4.10;99.90
14993;DHT22;7592;51.088;13.732;2024-02-14T02:17:35;4.10;99.90
14993;DHT22;7592;51.088;13.732;2024-02-14T02:22:28;4.00;99.90
14993;DHT22;7592;51.088;13.732;2024-02-14T02:27:24;3.80;99.90
14993;DHT22;7592;51.088;13.732;2024-02-14T02:32:16;3.80;99.90
14993;DHT22;7592;51.088;13.732;2024-02-14T02:37:09;3.80;99.90
14993;DHT22;7592;51.088;13.732;2024-02-14T02:42:02;3.80;99.90
14993;DHT22;7592;51.088;13.732;2024-02-14T02:46:55;4.00;99.90
14993;DHT22;7592;51.088;13.732;2024-02-14T02:51:47;4.00;99.90
14993;DHT22;7592;51.088;13.732;2024-02-14T02:56:40;4.00;99.90
14993;DHT22;7592;51.088;13.732;2024-02-14T03:01:36;3.90;99.90
14993;DHT22;7592;51.088;13.732;2024-02-14T03:06:29;3.90;99.90
14993;DHT22;7592;51.088;13.732;2024-02-14T03:11:24;3.90;99.90
14993;DHT22;7592;51.088;13.732;2024-02-14T03:16:19;4.00;99.90
14993;DHT22;7592;51.088;13.732;2024-02-14T03:21:11;4.10;99.90
14993;DHT22;7592;51.088;13.732;2024-02-14T03:26:03;4.00;99.90
14993;DHT22;7592;51.088;13.732;2024-02-14T03:30:59;4.00;99.90
14993;DHT22;7592;51.088;13.732;2024-02-14T03:35:51;4.00;99.90
14993;DHT22;7592;51.088;13.732;2024-02-14T03:40:44;3.90;99.90
14993;DHT22;7592;51.088;13.732;2024-02-14T03:45:38;3.80;99.90
14993;DHT22;7592;51.088;13.732;2024-02-14T03:50:32;3.80;99.90
14993;DHT22;7592;51.088;13.732;2024-02-14T03:55:24;4.00;99.90
14993;DHT22;7592;51.088;13.732;2024-02-14T04:00:17;4.30;99.90
14993;DHT22;7592;51.088;13.732;2024-02-14T04:05:09;4.40;99.90
14993;DHT22;7592;51.088;13.732;2024-02-14T04:10:02;4.50;99.90
14993;DHT22;7592;51.088;13.732;2024-02-14T04:14:54;4.60;99.90
14993;DHT22;7592;51.088;13.732;2024-02-14T04:19:48;4.70;99.90
14993;DHT22;7592;51.088;13.732;2024-02-14T04:24:40;4.70;99.90
14993;DHT22;7592;51.088;13.732;2024-02-14T04:29:32;4.80;99.90
14993;DHT22;7592;51.088;13.732;2024-02-14T04:34:26;4.90;99.90
14993;DHT22;7592;51.088;13.732;2024-02-14T04:39:19;4.90;99.90
14993;DHT22;7592;51.088;13.732;2024-02-14T04:44:11;4.90;99.90
14993;DHT22;7592;51.088;13.732;2024-02-14T04:49:03;4.80;99.90
14993;DHT22;7592;51.088;13.732;2024-02-14T04:53:56;4.50;99.90
14993;DHT22;7592;51.088;13.732;2024-02-14T04:58:53;4.40;99.90
14993;DHT22;7592;51.088;13.732;2024-02-14T05:03:46;4.30;99.90
14993;DHT22;7592;51.088;13.732;2024-02-14T05:08:39;4.20;99.90
14993;DHT22;7592;51.088;13.732;2024-02-14T05:13:31;4.10;99.90
14993;DHT22;7592;51.088;13.732;2024-02-14T05:18:24;4.00;99.90
14993;DHT22;7592;51.088;13.732;2024-02-14T05:23:16;4.00;99.90
14993;DHT22;7592;51.088;13.732;2024-02-14T05:28:09;4.00;99.90
14993;DHT22;7592;51.088;13.732;2024-02-14T05:33:05;4.20;99.90
14993;DHT22;7592;51.088;13.732;2024-02-14T05:37:58;4.10;99.90
14993;DHT22;7592;51.088;13.732;2024-02-14T05:42:50;4.20;99.90
14993;DHT22;7592;51.088;13.732;2024-02-14T05:47:43;4.30;99.90
14993;DHT22;7592;51.088;13.732;2024-02-14T05:52:35;4.40;99.90
14993;DHT22;7592;51.088;13.732;2024-02-14T05:57:27;4.60;99.90
14993;DHT22;7592;51.088;13.732;2024-02-14T06:02:19;4.70;99.90
14993;DHT22;7592;51.088;13.732;2024-02-14T06:07:12;4.90;99.90
14993;DHT22;7592;51.088;13.732;2024-02-14T06:12:04;4.90;99.90
14993;DHT22;7592;51.088;13.732;2024-02-14T06:16:57;4.90;99.90
14993;DHT22;7592;51.088;13.732;2024-02-14T06:21:49;4.90;99.90
14993;DHT22;7592;51.088;13.732;2024-02-14T06:26:41;5.10;99.90
14993;DHT22;7592;51.088;13.732;2024-02-14T06:31:33;5.20;99.90
14993;DHT22;7592;51.088;13.732;2024-02-14T06:36:26;5.30;99.90
14993;DHT22;7592;51.088;13.732;2024-02-14T06:41:18;5.40;99.90
14993;DHT22;7592;51.088;13.732;2024-02-14T06:46:11;5.60;99.90
14993;DHT22;7592;51.088;13.732;2024-02-14T06:51:05;5.70;99.90
14993;DHT22;7592;51.088;13.732;2024-02-14T06:55:58;5.80;99.90
14993;DHT22;7592;51.088;13.732;2024-02-14T07:00:50;5.80;99.90
14993;DHT22;7592;51.088;13.732;2024-02-14T07:05:42;5.90;99.90
14993;DHT22;7592;51.088;13.732;2024-02-14T07:10:34;5.90;99.90
14993;DHT22;7592;51.088;13.732;2024-02-14T07:15:26;5.90;99.90
14993;DHT22;7592;51.088;13.732;2024-02-14T07:20:21;6.10;99.90
14993;DHT22;7592;51.088;13.732;2024-02-14T07:25:14;6.30;99.90
14993;DHT22;7592;51.088;13.732;2024-02-14T07:30:06;6.50;99.90
14993;DHT22;7592;51.088;13.732;2024-02-14T07:34:58;6.60;99.90
14993;DHT22;7592;51.088;13.732;2024-02-14T07:39:51;6.80;99.90
14993;DHT22;7592;51.088;13.732;2024-02-14T07:44:43;6.90;99.90
14993;DHT22;7592;51.088;13.732;2024-02-14T07:49:35;7.20;99.90
14993;DHT22;7592;51.088;13.732;2024-02-14T07:54:28;7.50;99.90
14993;DHT22;7592;51.088;13.732;2024-02-14T07:59:20;7.90;99.90
14993;DHT22;7592;51.088;13.732;2024-02-14T08:04:12;7.90;99.90
14993;DHT22;7592;51.088;13.732;2024-02-14T08:09:04;7.80;99.90
14993;DHT22;7592;51.088;13.732;2024-02-14T08:14:02;8.10;99.90
14993;DHT22;7592;51.088;13.732;2024-02-14T08:18:55;8.60;99.90
14993;DHT22;7592;51.088;13.732;2024-02-14T08:23:52;8.60;99.90
14993;DHT22;7592;51.088;13.732;2024-02-14T08:28:45;8.40;99.90
14993;DHT22;7592;51.088;13.732;2024-02-14T08:33:39;8.50;99.90
14993;DHT22;7592;51.088;13.732;2024-02-14T08:38:31;8.60;99.90
14993;DHT22;7592;51.088;13.732;2024-02-14T08:43:24;8.70;99.90
14993;DHT22;7592;51.088;13.732;2024-02-14T08:48:20;8.80;99.90
14993;DHT22;7592;51.088;13.732;2024-02-14T08:53:12;8.70;99.90
14993;DHT22;7592;51.088;13.732;2024-02-14T08:58:06;8.80;99.90
14993;DHT22;7592;51.088;13.732;2024-02-14T09:02:58;8.90;99.90
14993;DHT22;7592;51.088;13.732;2024-02-14T09:07:52;9.00;99.90
14993;DHT22;7592;51.088;13.732;2024-02-14T09:12:44;9.30;99.90
14993;DHT22;7592;51.088;13.732;2024-02-14T09:17:36;9.50;99.90
14993;DHT22;7592;51.088;13.732;2024-02-14T09:22:29;9.80;99.90
14993;DHT22;7592;51.088;13.732;2024-02-14T09:27:21;10.00;99.90
14993;DHT22;7592;51.088;13.732;2024-02-14T09:32:13;10.10;99.90
14993;DHT22;7592;51.088;13.732;2024-02-14T09:37:05;10.30;99.90
14993;DHT22;7592;51.088;13.732;2024-02-14T09:41:59;10.20;99.90
14993;DHT22;7592;51.088;13.732;2024-02-14T09:46:55;10.20;99.90
14993;DHT22;7592;51.088;13.732;2024-02-14T09:51:48;10.20;99.90
14993;DHT22;7592;51.088;13.732;2024-02-14T09:56:41;10.30;99.90
14993;DHT22;7592;51.088;13.732;2024-02-14T10:01:33;10.40;99.90
14993;DHT22;7592;51.088;13.732;2024-02-14T10:06:25;10.50;99.90
14993;DHT22;7592;51.088;13.732;2024-02-14T10:11:18;10.50;99.90
14993;DHT22;7592;51.088;13.732;2024-02-14T10:16:14;10.70;99.90
14993;DHT22;7592;51.088;13.732;2024-02-14T10:21:08;10.90;99.90
14993;DHT22;7592;51.088;13.732;2024-02-14T10:26:00;11.00;99.90
14993;DHT22;7592;51.088;13.732;2024-02-14T10:30:54;11.00;99.90
14993;DHT22;7592;51.088;13.732;2024-02-14T10:35:47;10.90;99.90
14993;DHT22;7592;51.088;13.732;2024-02-14T10:40:41;10.80;99.90
14993;DHT22;7592;51.088;13.732;2024-02-14T10:45:35;10.70;99.90
14993;DHT22;7592;51.088;13.732;2024-02-14T10:50:31;10.60;99.90
14993;DHT22;7592;51.088;13.732;2024-02-14T10:55:30;10.70;99.90
14993;DHT22;7592;51.088;13.732;2024-02-14T11:00:22;10.80;99.90
14993;DHT22;7592;51.088;13.732;2024-02-14T11:05:15;10.90;99.90
14993;DHT22;7592;51.088;13.732;2024-02-14T11:10:08;11.10;99.90
14993;DHT22;7592;51.088;13.732;2024-02-14T11:15:00;11.40;99.90
14993;DHT22;7592;51.088;13.732;2024-02-14T11:19:56;11.70;99.90
14993;DHT22;7592;51.088;13.732;2024-02-14T11:24:49;11.90;99.90
14993;DHT22;7592;51.088;13.732;2024-02-14T11:29:51;12.30;99.90
14993;DHT22;7592;51.088;13.732;2024-02-14T11:34:54;12.80;99.90
14993;DHT22;7592;51.088;13.732;2024-02-14T11:39:50;13.10;99.90
14993;DHT22;7592;51.088;13.732;2024-02-14T11:44:42;13.50;99.90
14993;DHT22;7592;51.088;13.732;2024-02-14T11:49:37;13.70;99.90
14993;DHT22;7592;51.088;13.732;2024-02-14T11:54:31;13.70;99.90
14993;DHT22;7592;51.088;13.732;2024-02-14T11:59:23;13.70;99.90
14993;DHT22;7592;51.088;13.732;2024-02-14T12:04:16;13.90;99.90
14993;DHT22;7592;51.088;13.732;2024-02-14T12:09:09;14.10;99.90
14993;DHT22;7592;51.088;13.732;2024-02-14T12:14:08;13.90;99.90
14993;DHT22;7592;51.088;13.732;2024-02-14T12:19:06;13.60;99.90
14993;DHT22;7592;51.088;13.732;2024-02-14T12:24:00;13.60;99.90
14993;DHT22;7592;51.088;13.732;2024-02-14T12:28:52;13.80;99.90
14993;DHT22;7592;51.088;13.732;2024-02-14T12:33:45;13.80;99.90
14993;DHT22;7592;51.088;13.732;2024-02-14T12:38:37;13.70;99.90
14993;DHT22;7592;51.088;13.732;2024-02-14T12:43:30;13.60;99.90
14993;DHT22;7592;51.088;13.732;2024-02-14T12:48:23;13.70;99.90
14993;DHT22;7592;51.088;13.732;2024-02-14T12:53:19;13.90;99.90
14993;DHT22;7592;51.088;13.732;2024-02-14T12:58:14;14.10;99.90
14993;DHT22;7592;51.088;13.732;2024-02-14T13:03:07;13.90;99.90
14993;DHT22;7592;51.088;13.732;2024-02-14T13:07:59;13.60;99.90
14993;DHT22;7592;51.088;13.732;2024-02-14T13:12:52;13.60;99.90
14993;DHT22;7592;51.088;13.732;2024-02-14T13:17:44;13.60;99.90
14993;DHT22;7592;51.088;13.732;2024-02-14T13:22:37;13.90;99.90
14993;DHT22;7592;51.088;13.732;2024-02-14T13:27:29;14.10;99.90
14993;DHT22;7592;51.088;13.732;2024-02-14T13:32:21;14.20;99.90
14993;DHT22;7592;51.088;13.732;2024-02-14T13:37:14;14.20;99.90
14993;DHT22;7592;51.088;13.732;2024-02-14T13:42:09;14.40;99.90
14993;DHT22;7592;51.088;13.732;2024-02-14T13:47:02;14.20;99.90
14993;DHT22;7592;51.088;13.732;2024-02-14T13:51:54;13.90;99.90
14993;DHT22;7592;51.088;13.732;2024-02-14T13:56:48;13.50;99.90
14993;DHT22;7592;51.088;13.732;2024-02-14T14:01:41;13.20;99.90
14993;DHT22;7592;51.088;13.732;2024-02-14T14:06:33;13.20;99.90
14993;DHT22;7592;51.088;13.732;2024-02-14T14:11:26;13.00;99.90
14993;DHT22;7592;51.088;13.732;2024-02-14T14:16:19;12.80;99.90
14993;DHT22;7592;51.088;13.732;2024-02-14T14:21:13;12.70;99.90
14993;DHT22;7592;51.088;13.732;2024-02-14T14:26:05;12.70;99.90
14993;DHT22;7592;51.088;13.732;2024-02-14T14:30:58;12.70;99.90
14993;DHT22;7592;51.088;13.732;2024-02-14T14:35:52;12.70;99.90
14993;DHT22;7592;51.088;13.732;2024-02-14T14:40:46;12.70;99.90
14993;DHT22;7592;51.088;13.732;2024-02-14T14:45:38;12.60;99.90
14993;DHT22;7592;51.088;13.732;2024-02-14T14:50:31;12.60;99.90
14993;DHT22;7592;51.088;13.732;2024-02-14T14:55:24;12.70;99.90
14993;DHT22;7592;51.088;13.732;2024-02-14T15:00:17;12.60;99.90
14993;DHT22;7592;51.088;13.732;2024-02-14T15:05:10;12.70;99.90
14993;DHT22;7592;51.088;13.732;2024-02-14T15:10:03;12.60;99.90
14993;DHT22;7592;51.088;13.732;2024-02-14T15:14:56;12.60;99.90
14993;DHT22;7592;51.088;13.732;2024-02-14T15:19:51;12.60;99.90
14993;DHT22;7592;51.088;13.732;2024-02-14T15:24:43;12.40;99.90
14993;DHT22;7592;51.088;13.732;2024-02-14T15:29:37;12.40;99.90
14993;DHT22;7592;51.088;13.732;2024-02-14T15:34:48;12.20;99.90
14993;DHT22;7592;51.088;13.732;2024-02-14T15:39:40;12.20;99.90
14993;DHT22;7592;51.088;13.732;2024-02-14T15:44:32;12.10;99.90
14993;DHT22;7592;51.088;13.732;2024-02-14T15:49:24;12.00;99.90
14993;DHT22;7592;51.088;13.732;2024-02-14T15:54:21;12.00;99.90
14993;DHT22;7592;51.088;13.732;2024-02-14T15:59:13;11.90;99.90
14993;DHT22;7592;51.088;13.732;2024-02-14T16:04:08;11.80;99.90
14993;DHT22;7592;51.088;13.732;2024-02-14T16:09:01;11.80;99.90
14993;DHT22;7592;51.088;13.732;2024-02-14T16:13:54;11.90;99.90
14993;DHT22;7592;51.088;13.732;2024-02-14T16:18:46;11.80;99.90
14993;DHT22;7592;51.088;13.732;2024-02-14T16:23:38;11.70;99.90
14993;DHT22;7592;51.088;13.732;2024-02-14T16:28:30;11.50;99.90
14993;DHT22;7592;51.088;13.732;2024-02-14T16:33:23;11.50;99.90
14993;DHT22;7592;51.088;13.732;2024-02-14T16:38:15;11.50;99.90
14993;DHT22;7592;51.088;13.732;2024-02-14T16:43:07;11.40;99.90
14993;DHT22;7592;51.088;13.732;2024-02-14T16:48:02;11.30;99.90
14993;DHT22;7592;51.088;13.732;2024-02-14T16:52:55;11.30;99.90
14993;DHT22;7592;51.088;13.732;2024-02-14T16:57:47;11.40;99.90
14993;DHT22;7592;51.088;13.732;2024-02-14T17:02:39;11.30;99.90
14993;DHT22;7592;51.088;13.732;2024-02-14T17:07:31;11.30;99.90
14993;DHT22;7592;51.088;13.732;2024-02-14T17:12:24;11.30;99.90
14993;DHT22;7592;51.088;13.732;2024-02-14T17:17:16;11.30;99.90
14993;DHT22;7592;51.088;13.732;2024-02-14T17:22:08;11.20;99.90
14993;DHT22;7592;51.088;13.732;2024-02-14T17:27:15;11.10;99.90
14993;DHT22;7592;51.088;13.732;2024-02-14T17:32:08;11.20;99.90
14993;DHT22;7592;51.088;13.732;2024-02-14T17:37:18;11.20;99.90
14993;DHT22;7592;51.088;13.732;2024-02-14T17:42:10;11.20;99.90
14993;DHT22;7592;51.088;13.732;2024-02-14T17:47:02;11.20;99.90
14993;DHT22;7592;51.088;13.732;2024-02-14T17:51:55;11.20;99.90
14993;DHT22;7592;51.088;13.732;2024-02-14T17:56:46;11.30;99.90
14993;DHT22;7592;51.088;13.732;2024-02-14T18:01:39;11.30;99.90
14993;DHT22;7592;51.088;13.732;2024-02-14T18:06:31;11.30;99.90
14993;DHT22;7592;51.088;13.732;2024-02-14T18:11:24;11.30;99.90
14993;DHT22;7592;51.088;13.732;2024-02-14T18:16:16;11.20;99.90
14993;DHT22;7592;51.088;13.732;2024-02-14T18:21:08;11.20;99.90
14993;DHT22;7592;51.088;13.732;2024-02-14T18:26:00;11.30;99.90
14993;DHT22;7592;51.088;13.732;2024-02-14T18:30:52;11.30;99.90
14993;DHT22;7592;51.088;13.732;2024-02-14T18:35:45;11.20;99.90
14993;DHT22;7592;51.088;13.732;2024-02-14T18:40:37;11.20;99.90
14993;DHT22;7592;51.088;13.732;2024-02-14T18:45:30;11.20;99.90
14993;DHT22;7592;51.088;13.732;2024-02-14T18:50:22;11.20;99.90
14993;DHT22;7592;51.088;13.732;2024-02-14T18:55:16;11.30;99.90
14993;DHT22;7592;51.088;13.732;2024-02-14T19:00:11;11.20;99.90
14993;DHT22;7592;51.088;13.732;2024-02-14T19:05:05;11.10;99.90
14993;DHT22;7592;51.088;13.732;2024-02-14T19:10:00;11.00;99.90
14993;DHT22;7592;51.088;13.732;2024-02-14T19:14:52;11.00;99.90
14993;DHT22;7592;51.088;13.732;2024-02-14T19:19:46;11.00;99.90
14993;DHT22;7592;51.088;13.732;2024-02-14T19:24:38;11.00;99.90
14993;DHT22;7592;51.088;13.732;2024-02-14T19:29:31;11.20;99.90
14993;DHT22;7592;51.088;13.732;2024-02-14T19:34:23;11.10;99.90
14993;DHT22;7592;51.088;13.732;2024-02-14T19:39:15;11.20;99.90
14993;DHT22;7592;51.088;13.732;2024-02-14T19:44:08;11.20;99.90
14993;DHT22;7592;51.088;13.732;2024-02-14T19:49:01;11.30;99.90
14993;DHT22;7592;51.088;13.732;2024-02-14T19:53:54;11.40;99.90
14993;DHT22;7592;51.088;13.732;2024-02-14T19:58:47;11.30;99.90
14993;DHT22;7592;51.088;13.732;2024-02-14T20:03:39;11.40;99.90
14993;DHT22;7592;51.088;13.732;2024-02-14T20:08:34;11.40;99.90
14993;DHT22;7592;51.088;13.732;2024-02-14T20:13:29;11.30;99.90
14993;DHT22;7592;51.088;13.732;2024-02-14T20:18:23;11.30;99.90
14993;DHT22;7592;51.088;13.732;2024-02-14T20:23:15;11.30;99.90
14993;DHT22;7592;51.088;13.732;2024-02-14T20:28:07;11.30;99.90
14993;DHT22;7592;51.088;13.732;2024-02-14T20:32:59;11.30;99.90
14993;DHT22;7592;51.088;13.732;2024-02-14T20:37:52;11.30;99.90
14993;DHT22;7592;51.088;13.732;2024-02-14T20:42:44;11.30;99.90
14993;DHT22;7592;51.088;13.732;2024-02-14T20:47:37;11.40;99.90
14993;DHT22;7592;51.088;13.732;2024-02-14T20:52:30;11.40;99.90
14993;DHT22;7592;51.088;13.732;2024-02-14T20:57:22;11.30;99.90
14993;DHT22;7592;51.088;13.732;2024-02-14T21:02:15;11.30;99.90
14993;DHT22;7592;51.088;13.732;2024-02-14T21:07:08;11.30;99.90
14993;DHT22;7592;51.088;13.732;2024-02-14T21:12:02;11.20;99.90
14993;DHT22;7592;51.088;13.732;2024-02-14T21:16:54;11.20;99.90
14993;DHT22;7592;51.088;13.732;2024-02-14T21:21:46;11.20;99.90
14993;DHT22;7592;51.088;13.732;2024-02-14T21:26:39;11.20;99.90
14993;DHT22;7592;51.088;13.732;2024-02-14T21:31:31;11.30;99.90
14993;DHT22;7592;51.088;13.732;2024-02-14T21:36:24;11.20;99.90
14993;DHT22;7592;51.088;13.732;2024-02-14T21:41:16;11.20;99.90
14993;DHT22;7592;51.088;13.732;2024-02-14T21:46:09;11.20;99.90
14993;DHT22;7592;51.088;13.732;2024-02-14T21:51:01;11.20;99.90
14993;DHT22;7592;51.088;13.732;2024-02-14T21:55:56;11.30;99.90
14993;DHT22;7592;51.088;13.732;2024-02-14T22:00:48;11.40;99.90
14993;DHT22;7592;51.088;13.732;2024-02-14T22:05:40;11.40;99.90
14993;DHT22;7592;51.088;13.732;2024-02-14T22:10:33;11.20;99.90
14993;DHT22;7592;51.088;13.732;2024-02-14T22:15:25;11.10;99.90
14993;DHT22;7592;51.088;13.732;2024-02-14T22:20:17;11.00;99.90
14993;DHT22;7592;51.088;13.732;2024-02-14T22:25:12;11.00;99.90
14993;DHT22;7592;51.088;13.732;2024-02-14T22:30:04;10.90;99.90
14993;DHT22;7592;51.088;13.732;2024-02-14T22:34:59;10.80;99.90
14993;DHT22;7592;51.088;13.732;2024-02-14T22:39:51;10.80;99.90
14993;DHT22;7592;51.088;13.732;2024-02-14T22:44:44;10.60;99.90
14993;DHT22;7592;51.088;13.732;2024-02-14T22:49:36;10.50;99.90
14993;DHT22;7592;51.088;13.732;2024-02-14T22:54:29;10.50;99.90
14993;DHT22;7592;51.088;13.732;2024-02-14T22:59:21;10.50;99.90
14993;DHT22;7592;51.088;13.732;2024-02-14T23:04:14;10.40;99.90
14993;DHT22;7592;51.088;13.732;2024-02-14T23:09:07;10.40;99.90
14993;DHT22;7592;51.088;13.732;2024-02-14T23:14:01;10.30;99.90
14993;DHT22;7592;51.088;13.732;2024-02-14T23:18:53;10.30;99.90
14993;DHT22;7592;51.088;13.732;2024-02-14T23:23:47;10.30;99.90
14993;DHT22;7592;51.088;13.732;2024-02-14T23:28:39;10.20;99.90
14993;DHT22;7592;51.088;13.732;2024-02-14T23:33:31;10.20;99.90
14993;DHT22;7592;51.088;13.732;2024-02-14T23:38:24;10.30;99.90
14993;DHT22;7592;51.088;13.732;2024-02-14T23:43:16;10.30;99.90
14993;DHT22;7592;51.088;13.732;2024-02-14T23:48:08;10.40;99.90
14993;DHT22;7592;51.088;13.732;2024-02-14T23:53:03;10.40;99.90
14993;DHT22;7592;51.088;13.732;2024-02-14T23:57:55;10.20;99.90
